createdAt,value
2018-12-02T00:00:56.026Z,0.93
2018-12-02T00:03:31.163Z,1.20
2018-12-02T00:06:03.458Z,1.00
2018-12-02T00:08:35.894Z,1.20
2018-12-02T00:11:07.646Z,0.93
2018-12-02T00:13:39.084Z,0.67
2018-12-02T00:16:10.343Z,0.90
2018-12-02T00:18:41.755Z,1.00
2018-12-02T00:21:13.244Z,0.80
2018-12-02T00:23:45.994Z,0.93
2018-12-02T00:26:17.542Z,0.97
2018-12-02T00:28:51.559Z,1.00
2018-12-02T00:31:23.365Z,0.80
2018-12-02T00:33:55.448Z,1.00
2018-12-02T00:36:28.949Z,0.90
2018-12-02T00:39:00.300Z,0.87
2018-12-02T00:41:31.522Z,0.80
2018-12-02T00:44:02.967Z,0.93
2018-12-02T00:46:34.159Z,0.80
2018-12-02T00:49:05.404Z,1.00
2018-12-02T00:51:36.761Z,0.80
2018-12-02T00:54:08.616Z,0.80
2018-12-02T00:56:39.797Z,0.80
2018-12-02T00:59:13.477Z,0.73
2018-12-02T01:01:44.867Z,0.90
2018-12-02T01:04:16.928Z,0.73
2018-12-02T01:06:53.406Z,0.70
2018-12-02T01:09:20.685Z,1.03
2018-12-02T01:11:51.930Z,0.97
2018-12-02T01:14:23.939Z,0.77
2018-12-02T01:16:55.338Z,0.73
2018-12-02T01:19:26.649Z,0.60
2018-12-02T01:21:58.211Z,0.73
2018-12-02T01:24:29.597Z,0.70
2018-12-02T01:27:03.830Z,0.93
2018-12-02T01:29:35.866Z,0.80
2018-12-02T01:32:06.970Z,0.80
2018-12-02T01:34:38.355Z,0.90
2018-12-02T01:37:10.281Z,0.80
2018-12-02T01:39:41.791Z,0.80
2018-12-02T01:42:13.098Z,0.90
2018-12-02T01:44:45.164Z,0.63
2018-12-02T01:47:16.606Z,0.80
2018-12-02T01:49:47.855Z,1.13
2018-12-02T01:52:19.180Z,0.60
2018-12-02T01:54:50.487Z,0.70
2018-12-02T01:57:21.616Z,0.70
2018-12-02T01:59:55.604Z,0.70
2018-12-02T02:02:27.691Z,0.80
2018-12-02T02:04:59.085Z,0.70
2018-12-02T02:07:30.327Z,0.70
2018-12-02T02:10:01.559Z,0.70
2018-12-02T02:12:34.369Z,0.53
2018-12-02T02:15:09.301Z,0.60
2018-12-02T02:17:41.385Z,0.70
2018-12-02T02:20:13.897Z,1.10
2018-12-02T02:22:47.201Z,0.80
2018-12-02T02:25:19.586Z,0.90
2018-12-02T02:27:59.412Z,0.60
2018-12-02T02:30:33.817Z,0.57
2018-12-02T02:33:08.471Z,0.70
2018-12-02T02:35:44.453Z,0.50
2018-12-02T02:38:14.228Z,0.63
2018-12-02T02:40:45.477Z,0.50
2018-12-02T02:43:16.857Z,0.80
2018-12-02T02:45:50.880Z,0.70
2018-12-02T02:48:22.082Z,0.67
2018-12-02T02:50:53.281Z,0.57
2018-12-02T02:53:27.559Z,0.60
2018-12-02T02:55:58.731Z,0.60
2018-12-02T02:58:29.953Z,0.67
2018-12-02T03:01:01.303Z,0.50
2018-12-02T03:03:32.467Z,1.03
2018-12-02T03:06:04.614Z,0.63
2018-12-02T03:08:37.719Z,0.50
2018-12-02T03:11:08.903Z,0.67
2018-12-02T03:13:41.169Z,0.70
2018-12-02T03:16:12.569Z,0.50
2018-12-02T03:18:43.931Z,0.70
2018-12-02T03:21:17.518Z,0.57
2018-12-02T03:23:48.669Z,0.90
2018-12-02T03:26:20.061Z,0.90
2018-12-02T03:28:52.309Z,1.00
2018-12-02T03:31:25.186Z,0.60
2018-12-02T03:33:57.251Z,0.70
2018-12-02T03:36:28.560Z,0.80
2018-12-02T03:38:59.847Z,0.90
2018-12-02T03:41:32.178Z,0.80
2018-12-02T03:44:03.516Z,0.87
2018-12-02T03:46:34.787Z,0.77
2018-12-02T03:49:08.886Z,0.93
2018-12-02T03:51:40.322Z,0.77
2018-12-02T03:54:11.474Z,0.80
2018-12-02T03:56:47.907Z,0.60
2018-12-02T03:59:19.995Z,0.90
2018-12-02T04:01:51.551Z,1.00
2018-12-02T04:04:23.526Z,0.80
2018-12-02T04:06:57.332Z,0.70
2018-12-02T04:09:29.663Z,0.93
2018-12-02T04:12:01.007Z,0.97
2018-12-02T04:14:32.414Z,0.93
2018-12-02T04:17:03.671Z,0.83
2018-12-02T04:19:35.714Z,1.00
2018-12-02T04:22:08.028Z,0.93
2018-12-02T04:24:39.229Z,0.97
2018-12-02T04:27:10.463Z,1.00
2018-12-02T04:29:41.711Z,0.90
2018-12-02T04:32:13.608Z,0.73
2018-12-02T04:34:44.762Z,0.73
2018-12-02T04:37:16.171Z,0.73
2018-12-02T04:39:48.239Z,0.90
2018-12-02T04:42:19.602Z,0.60
2018-12-02T04:44:51.005Z,0.70
2018-12-02T04:47:22.384Z,0.70
2018-12-02T04:49:53.617Z,0.60
2018-12-02T04:52:24.727Z,0.60
2018-12-02T04:54:56.068Z,0.43
2018-12-02T04:57:27.558Z,0.50
2018-12-02T04:59:58.762Z,0.47
2018-12-02T05:02:32.858Z,0.60
2018-12-02T05:05:04.075Z,0.40
2018-12-02T05:07:35.611Z,0.40
2018-12-02T05:10:17.119Z,0.40
2018-12-02T05:12:48.514Z,0.60
2018-12-02T05:15:20.582Z,0.50
2018-12-02T05:17:51.765Z,0.60
2018-12-02T05:20:25.746Z,0.60
2018-12-02T05:22:57.006Z,0.50
2018-12-02T05:25:28.263Z,0.40
2018-12-02T05:27:59.488Z,0.40
2018-12-02T05:30:31.181Z,0.57
2018-12-02T05:33:02.377Z,0.37
2018-12-02T05:35:33.688Z,0.40
2018-12-02T05:38:04.975Z,0.43
2018-12-02T05:40:37.360Z,0.50
2018-12-02T05:43:08.640Z,0.43
2018-12-02T05:45:39.875Z,0.40
2018-12-02T05:48:11.111Z,0.47
2018-12-02T05:50:42.379Z,0.40
2018-12-02T05:53:13.925Z,0.40
2018-12-02T05:55:45.168Z,0.40
2018-12-02T05:58:16.389Z,0.37
2018-12-02T06:00:53.382Z,0.33
2018-12-02T06:03:27.475Z,0.20
2018-12-02T06:05:58.845Z,0.20
2018-12-02T06:08:30.089Z,0.40
2018-12-02T06:11:01.240Z,0.20
2018-12-02T06:13:34.300Z,0.40
2018-12-02T06:16:05.545Z,0.40
2018-12-02T06:18:36.846Z,0.10
2018-12-02T06:21:08.240Z,0.30
2018-12-02T06:23:39.421Z,0.13
2018-12-02T06:26:10.554Z,0.20
2018-12-02T06:28:43.930Z,0.40
2018-12-02T06:31:15.968Z,0.20
2018-12-02T06:33:47.266Z,0.20
2018-12-02T06:36:18.440Z,0.33
2018-12-02T06:38:49.797Z,0.20
2018-12-02T06:41:22.401Z,0.37
2018-12-02T06:43:54.519Z,0.30
2018-12-02T06:46:25.699Z,0.27
2018-12-02T06:48:56.904Z,0.20
2018-12-02T06:51:28.186Z,0.40
2018-12-02T06:53:59.358Z,0.20
2018-12-02T06:56:37.607Z,0.27
2018-12-02T06:59:20.609Z,0.20
2018-12-02T07:02:00.766Z,0.30
2018-12-02T07:04:38.882Z,0.40
2018-12-02T07:07:10.088Z,0.30
2018-12-02T07:09:41.271Z,0.30
2018-12-02T07:12:12.504Z,0.50
2018-12-02T07:14:43.776Z,0.40
2018-12-02T07:17:15.817Z,0.30
2018-12-02T07:19:50.195Z,0.40
2018-12-02T07:22:24.287Z,0.60
2018-12-02T07:24:59.051Z,0.40
2018-12-02T07:27:30.291Z,0.80
2018-12-02T07:30:01.593Z,0.77
2018-12-02T07:32:33.619Z,0.60
2018-12-02T07:35:24.129Z,0.50
2018-12-02T07:38:04.743Z,0.70
2018-12-02T07:40:38.621Z,0.50
2018-12-02T07:43:12.305Z,0.50
2018-12-02T07:45:43.451Z,0.50
2018-12-02T07:48:18.396Z,0.80
2018-12-02T07:50:54.679Z,0.60
2018-12-02T07:53:26.022Z,0.63
2018-12-02T07:55:57.802Z,0.80
2018-12-02T07:58:30.041Z,0.60
2018-12-02T08:01:01.402Z,0.67
2018-12-02T08:03:40.923Z,0.70
2018-12-02T08:06:13.017Z,0.80
2018-12-02T08:08:44.168Z,1.50
2018-12-02T08:11:16.292Z,0.97
2018-12-02T08:13:47.434Z,0.80
2018-12-02T08:16:18.546Z,0.93
2018-12-02T08:18:50.085Z,0.87
2018-12-02T08:21:22.288Z,0.83
2018-12-02T08:23:58.728Z,1.00
2018-12-02T08:26:29.953Z,0.93
2018-12-02T08:29:09.987Z,1.10
2018-12-02T08:31:41.229Z,1.00
2018-12-02T08:34:12.679Z,1.20
2018-12-02T08:36:46.203Z,1.13
2018-12-02T08:39:17.501Z,0.87
2018-12-02T08:41:48.748Z,1.00
2018-12-02T08:44:20.000Z,0.97
2018-12-02T08:46:51.386Z,1.10
2018-12-02T08:49:22.665Z,1.30
2018-12-02T08:51:53.819Z,1.40
2018-12-02T08:54:25.003Z,1.30
2018-12-02T08:56:56.118Z,1.70
2018-12-02T08:59:27.447Z,1.33
2018-12-02T09:01:58.636Z,1.43
2018-12-02T09:04:29.827Z,1.50
2018-12-02T09:07:01.014Z,1.67
2018-12-02T09:09:33.144Z,1.50
2018-12-02T09:12:04.325Z,1.57
2018-12-02T09:14:40.955Z,1.80
2018-12-02T09:17:12.253Z,2.00
2018-12-02T09:19:43.634Z,2.20
2018-12-02T09:22:14.846Z,2.47
2018-12-02T09:24:46.154Z,2.30
2018-12-02T09:27:17.576Z,2.90
2018-12-02T09:29:48.731Z,3.03
2018-12-02T09:32:20.005Z,3.00
2018-12-02T09:34:51.225Z,3.40
2018-12-02T09:37:22.686Z,3.83
2018-12-02T09:39:54.874Z,3.80
2018-12-02T09:42:26.155Z,3.17
2018-12-02T09:45:01.673Z,3.87
2018-12-02T09:47:33.925Z,3.33
2018-12-02T09:50:09.957Z,4.60
2018-12-02T09:52:41.519Z,4.30
2018-12-02T09:55:31.349Z,4.17
2018-12-02T09:58:05.783Z,3.67
2018-12-02T10:00:37.129Z,3.50
2018-12-02T10:03:08.509Z,3.90
2018-12-02T10:05:39.888Z,3.80
2018-12-02T10:08:11.203Z,3.73
2018-12-02T10:10:42.447Z,3.90
2018-12-02T10:13:15.556Z,3.30
2018-12-02T10:15:46.961Z,3.10
2018-12-02T10:18:18.147Z,3.20
2018-12-02T10:20:49.537Z,2.93
2018-12-02T10:23:20.666Z,3.40
2018-12-02T10:25:52.718Z,3.60
2018-12-02T10:28:23.989Z,3.10
2018-12-02T10:30:55.110Z,3.67
2018-12-02T10:33:26.287Z,4.10
2018-12-02T10:35:57.565Z,4.83
2018-12-02T10:38:28.706Z,4.20
2018-12-02T10:40:59.985Z,4.13
2018-12-02T10:43:35.348Z,4.83
2018-12-02T10:46:08.850Z,4.80
2018-12-02T10:48:45.378Z,4.83
2018-12-02T10:51:16.608Z,4.83
2018-12-02T10:53:48.658Z,5.07
2018-12-02T10:56:20.021Z,4.83
2018-12-02T10:58:52.233Z,4.90
2018-12-02T11:01:38.866Z,5.20
2018-12-02T11:04:10.307Z,5.33
2018-12-02T11:06:41.723Z,5.33
2018-12-02T11:09:14.743Z,5.20
2018-12-02T11:11:45.958Z,6.90
2018-12-02T11:14:22.618Z,5.67
2018-12-02T11:16:59.632Z,5.87
2018-12-02T11:19:30.915Z,6.30
2018-12-02T11:22:02.286Z,7.87
2018-12-02T11:24:34.239Z,8.53
2018-12-02T11:27:05.433Z,9.07
2018-12-02T11:29:36.598Z,9.40
2018-12-02T11:34:46.030Z,9.37
2018-12-02T11:37:17.299Z,10.23
2018-12-02T11:39:50.947Z,11.47
2018-12-02T11:42:22.381Z,11.80
2018-12-02T11:44:54.432Z,11.30
2018-12-02T11:47:25.652Z,11.23
2018-12-02T11:49:57.712Z,12.67
2018-12-02T11:52:29.119Z,12.67
2018-12-02T11:55:02.107Z,11.27
2018-12-02T11:57:33.470Z,12.07
2018-12-02T12:00:05.453Z,11.67
2018-12-02T12:02:36.724Z,10.10
2018-12-02T12:05:08.471Z,9.77
2018-12-02T12:07:51.326Z,9.13
2018-12-02T12:10:29.319Z,7.57
2018-12-02T12:13:11.793Z,8.13
2018-12-02T12:15:43.842Z,6.93
2018-12-02T12:18:15.261Z,6.43
2018-12-02T12:20:46.690Z,6.50
2018-12-02T12:23:24.008Z,5.20
2018-12-02T12:31:34.107Z,4.60
2018-12-02T12:34:05.556Z,4.23
2018-12-02T12:36:39.040Z,4.57
2018-12-02T12:39:10.758Z,4.50
2018-12-02T12:41:43.075Z,4.00
2018-12-02T12:44:14.311Z,3.97
2018-12-02T12:46:45.546Z,3.90
2018-12-02T12:49:16.780Z,3.93
2018-12-02T12:51:48.036Z,4.57
2018-12-02T12:54:19.362Z,4.37
2018-12-02T12:56:50.720Z,4.57
2018-12-02T12:59:22.090Z,5.13
2018-12-02T13:01:53.522Z,5.00
2018-12-02T13:04:24.786Z,5.53
2018-12-02T13:06:56.005Z,5.60
2018-12-02T13:09:27.306Z,6.07
2018-12-02T13:11:58.479Z,6.43
2018-12-02T13:14:29.755Z,5.80
2018-12-02T13:17:00.914Z,5.47
2018-12-02T13:19:32.165Z,5.90
2018-12-02T13:22:03.317Z,6.50
2018-12-02T13:24:34.656Z,7.13
2018-12-02T13:27:05.966Z,7.37
2018-12-02T13:29:37.103Z,6.90
2018-12-02T13:32:08.989Z,7.27
2018-12-02T13:34:41.144Z,6.70
2018-12-02T13:37:12.427Z,8.03
2018-12-02T13:39:43.697Z,7.40
2018-12-02T13:42:14.994Z,8.13
2018-12-02T13:44:46.099Z,8.60
2018-12-02T13:47:17.370Z,8.47
2018-12-02T13:49:48.577Z,8.33
2018-12-02T13:52:19.828Z,8.37
2018-12-02T13:54:51.102Z,7.57
2018-12-02T13:57:22.391Z,7.87
2018-12-02T13:59:53.528Z,7.57
2018-12-02T14:02:24.823Z,7.00
2018-12-02T14:04:55.979Z,6.77
2018-12-02T14:07:27.431Z,7.43
2018-12-02T14:09:59.392Z,7.80
2018-12-02T14:12:30.704Z,7.03
2018-12-02T14:15:02.723Z,6.90
2018-12-02T14:17:34.443Z,6.77
2018-12-02T14:20:06.066Z,7.27
2018-12-02T14:22:37.312Z,7.77
2018-12-02T14:25:14.866Z,7.77
2018-12-02T14:27:47.792Z,7.03
2018-12-02T14:30:20.566Z,7.20
2018-12-02T14:32:51.899Z,6.30
2018-12-02T14:35:23.280Z,6.43
2018-12-02T14:37:54.458Z,6.40
2018-12-02T14:40:25.704Z,5.83
2018-12-02T14:42:56.996Z,5.87
2018-12-02T14:45:28.244Z,5.80
2018-12-02T14:47:59.452Z,5.77
2018-12-02T14:50:30.630Z,5.80
2018-12-02T14:53:02.086Z,6.57
2018-12-02T14:55:33.288Z,5.93
2018-12-02T14:58:04.570Z,6.13
2018-12-02T15:00:35.806Z,5.37
2018-12-02T15:03:07.320Z,5.70
2018-12-02T15:05:38.513Z,4.90
2018-12-02T15:08:09.691Z,5.00
2018-12-02T15:10:40.976Z,4.80
2018-12-02T15:13:12.309Z,4.50
2018-12-02T15:15:43.582Z,4.67
2018-12-02T15:18:14.881Z,5.20
2018-12-02T15:20:46.172Z,4.87
2018-12-02T15:23:18.180Z,5.07
2018-12-02T15:25:49.548Z,5.30
2018-12-02T15:28:20.837Z,5.57
2018-12-02T15:30:52.211Z,5.47
2018-12-02T15:33:24.015Z,5.93
2018-12-02T15:35:55.200Z,5.43
2018-12-02T15:38:27.277Z,6.50
2018-12-02T15:40:58.510Z,7.20
2018-12-02T15:43:29.846Z,6.93
2018-12-02T15:46:06.170Z,7.33
2018-12-02T15:48:39.692Z,8.17
2018-12-02T15:51:11.106Z,8.20
2018-12-02T15:53:43.128Z,8.93
2018-12-02T15:56:14.391Z,8.80
2018-12-02T15:58:45.905Z,9.63
2018-12-02T16:01:17.160Z,10.47
2018-12-02T16:03:48.385Z,10.63
2018-12-02T16:06:19.560Z,10.07
2018-12-02T16:08:50.854Z,9.47
2018-12-02T16:11:22.964Z,8.43
2018-12-02T16:13:54.384Z,8.43
2018-12-02T16:16:25.644Z,8.77
2018-12-02T16:18:57.744Z,7.23
2018-12-02T16:21:29.148Z,7.67
2018-12-02T16:24:00.602Z,6.87
2018-12-02T16:26:32.192Z,7.97
2018-12-02T16:29:03.703Z,7.33
2018-12-02T16:31:34.968Z,6.93
2018-12-02T16:34:06.553Z,7.33
2018-12-02T16:36:37.810Z,7.40
2018-12-02T16:39:11.292Z,7.57
2018-12-02T16:41:42.647Z,7.63
2018-12-02T16:44:13.903Z,7.17
2018-12-02T16:46:45.284Z,7.60
2018-12-02T16:49:16.629Z,7.00
2018-12-02T16:51:47.935Z,7.40
2018-12-02T16:54:19.298Z,7.87
2018-12-02T16:56:50.794Z,8.20
2018-12-02T16:59:27.775Z,8.07
2018-12-02T17:02:05.241Z,8.07
2018-12-02T17:04:36.403Z,8.23
2018-12-02T17:07:08.525Z,8.90
2018-12-02T17:09:40.026Z,8.87
2018-12-02T17:12:12.182Z,9.70
2018-12-02T17:14:43.591Z,8.60
2018-12-02T17:17:15.027Z,8.13
2018-12-02T17:19:47.297Z,8.63
2018-12-02T17:22:18.809Z,7.50
2018-12-02T17:24:50.247Z,8.37
2018-12-02T17:27:22.364Z,7.10
2018-12-02T17:29:53.664Z,7.80
2018-12-02T17:32:25.036Z,7.33
2018-12-02T17:34:56.433Z,7.00
2018-12-02T17:37:27.907Z,6.30
2018-12-02T17:39:59.124Z,6.20
2018-12-02T17:42:30.521Z,5.87
2018-12-02T17:45:03.990Z,6.03
2018-12-02T17:47:35.353Z,5.73
2018-12-02T17:50:11.527Z,5.50
2018-12-02T17:52:43.731Z,6.13
2018-12-02T17:55:15.085Z,6.57
2018-12-02T17:57:46.434Z,7.10
2018-12-02T18:00:29.109Z,6.40
2018-12-02T18:03:04.164Z,7.80
2018-12-02T18:05:43.948Z,6.20
2018-12-02T18:08:15.404Z,6.80
2018-12-02T18:10:46.680Z,6.47
2018-12-02T18:13:17.934Z,6.37
2018-12-02T18:15:49.322Z,6.20
2018-12-02T18:18:21.547Z,5.77
2018-12-02T18:20:52.829Z,5.93
2018-12-02T18:23:24.187Z,5.90
2018-12-02T18:26:00.470Z,5.60
2018-12-02T18:28:31.805Z,5.77
2018-12-02T18:31:03.127Z,6.33
2018-12-02T18:33:34.491Z,6.60
2018-12-02T18:36:13.824Z,7.03
2018-12-02T18:38:46.544Z,7.40
2018-12-02T18:41:34.901Z,7.33
2018-12-02T18:44:07.595Z,7.67
2018-12-02T18:46:38.856Z,7.90
2018-12-02T18:51:53.979Z,7.27
2018-12-02T18:54:26.278Z,7.37
2018-12-02T18:56:57.800Z,7.20
2018-12-02T18:59:29.987Z,6.93
2018-12-02T19:02:01.496Z,7.47
2018-12-02T19:04:32.887Z,6.93
2018-12-02T19:07:04.342Z,9.43
2018-12-02T19:09:35.756Z,7.47
2018-12-02T19:12:07.463Z,6.90
2018-12-02T19:14:42.609Z,7.10
2018-12-02T19:17:13.905Z,7.63
2018-12-02T19:19:45.316Z,7.00
2018-12-02T19:22:17.806Z,7.47
2018-12-02T19:24:49.204Z,6.67
2018-12-02T19:27:20.538Z,6.37
2018-12-02T19:29:54.969Z,6.47
2018-12-02T19:32:26.312Z,7.40
2018-12-02T19:34:58.512Z,6.83
2018-12-02T19:37:30.583Z,6.07
2018-12-02T19:40:02.005Z,6.47
2018-12-02T19:42:33.508Z,6.60
2018-12-02T19:45:05.108Z,5.80
2018-12-02T19:47:36.650Z,6.17
2018-12-02T19:50:10.067Z,6.77
2018-12-02T19:52:45.169Z,6.93
2018-12-02T19:55:16.560Z,5.97
2018-12-02T19:57:49.343Z,5.17
2018-12-02T20:00:41.908Z,5.30
2018-12-02T20:03:14.094Z,5.43
2018-12-02T20:05:46.396Z,6.10
2018-12-02T20:08:18.262Z,5.57
2018-12-02T20:10:54.548Z,5.80
2018-12-02T20:13:26.087Z,6.30
2018-12-02T20:16:14.569Z,6.00
2018-12-02T20:18:46.012Z,6.27
2018-12-02T20:21:18.357Z,6.10
2018-12-02T20:24:07.498Z,6.47
2018-12-02T20:26:39.671Z,5.60
2018-12-02T20:29:11.313Z,5.13
2018-12-02T20:31:42.773Z,5.53
2018-12-02T20:34:14.854Z,5.00
2018-12-02T20:36:48.868Z,5.57
2018-12-02T20:39:20.333Z,5.00
2018-12-02T20:41:51.638Z,5.23
2018-12-02T20:44:23.295Z,4.93
2018-12-02T20:46:54.551Z,5.57
2018-12-02T20:49:25.873Z,5.53
2018-12-02T20:51:57.331Z,5.70
2018-12-02T20:54:29.532Z,5.43
2018-12-02T20:57:00.938Z,5.40
2018-12-02T20:59:32.338Z,5.20
2018-12-02T21:02:03.844Z,5.10
2018-12-02T21:04:35.170Z,4.80
2018-12-02T21:07:06.591Z,5.13
2018-12-02T21:09:37.849Z,5.10
2018-12-02T21:12:09.164Z,6.10
2018-12-02T21:14:40.635Z,6.00
2018-12-02T21:17:12.160Z,6.23
2018-12-02T21:19:43.616Z,5.70
2018-12-02T21:22:15.015Z,6.83
2018-12-02T21:24:46.420Z,6.33
2018-12-02T21:27:17.781Z,6.30
2018-12-02T21:29:49.166Z,6.67
2018-12-02T21:32:22.568Z,8.40
2018-12-02T21:34:53.193Z,8.53
2018-12-02T21:37:24.666Z,9.70
2018-12-02T21:39:56.102Z,9.67
2018-12-02T21:42:27.356Z,9.53
2018-12-02T21:44:58.785Z,9.87
2018-12-02T21:47:30.099Z,10.77
2018-12-02T21:50:03.318Z,10.27
2018-12-02T21:52:34.618Z,10.70
2018-12-02T21:55:06.102Z,10.57
2018-12-02T21:57:38.791Z,10.53
2018-12-02T22:00:38.545Z,10.80
2018-12-02T22:03:10.564Z,9.63
2018-12-02T22:05:48.030Z,10.73
2018-12-02T22:08:19.383Z,9.50
2018-12-02T22:10:50.900Z,9.57
2018-12-02T22:13:22.668Z,10.27
2018-12-02T22:15:54.127Z,9.50
2018-12-02T22:18:26.417Z,9.60
2018-12-02T22:20:57.795Z,8.77
2018-12-02T22:23:29.139Z,9.00
2018-12-02T22:26:00.314Z,8.70
2018-12-02T22:28:31.723Z,8.40
2018-12-02T22:31:03.023Z,7.47
2018-12-02T22:33:34.351Z,7.30
2018-12-02T22:36:05.602Z,8.80
2018-12-02T22:38:37.063Z,8.13
2018-12-02T22:41:08.584Z,8.73
2018-12-02T22:43:39.746Z,9.37
2018-12-02T22:46:11.302Z,8.90
2018-12-02T22:48:42.616Z,9.17
2018-12-02T22:51:13.775Z,9.57
2018-12-02T22:53:45.062Z,8.47
2018-12-02T22:56:16.319Z,9.27
2018-12-02T22:58:47.555Z,8.90
2018-12-02T23:01:36.965Z,9.47
2018-12-02T23:04:08.162Z,8.80
2018-12-02T23:06:39.442Z,8.80
2018-12-02T23:09:11.219Z,8.70
2018-12-02T23:11:42.392Z,9.00
2018-12-02T23:14:13.539Z,8.97
2018-12-02T23:17:13.757Z,8.77
2018-12-02T23:19:45.070Z,9.23
2018-12-02T23:24:53.318Z,10.40
2018-12-02T23:27:24.634Z,10.47
2018-12-02T23:29:55.816Z,9.87
2018-12-02T23:32:27.073Z,10.67
2018-12-02T23:34:58.972Z,9.83
2018-12-02T23:37:30.124Z,9.97
2018-12-02T23:40:01.335Z,9.60
2018-12-02T23:42:32.550Z,11.03
2018-12-02T23:45:03.741Z,9.50
2018-12-02T23:47:35.075Z,10.87
2018-12-02T23:50:25.471Z,10.67
2018-12-02T23:52:56.771Z,10.30
2018-12-02T23:55:27.931Z,10.50
2018-12-02T23:58:57.974Z,11.27
